Time;durP1;ratioP1;P1;durP2;ratioP2;P2;SDS_P1;SDS_P2;PMS_P1;PMS_P2;Temp;Humidity;BMP_temperature;BMP_pressure;BME280_temperature;BME280_humidity;BME280_pressure;Samples;Min_cycle;Max_cycle;Signal;HPM_P1;HPM_P2
2022/08/17 00:00:04;;;;;;;;;;;;;;;25.01;57.47;100709.03;1029148;28;666;-68
2022/08/17 00:00:55;;;;;;;;;;;;;;;25.00;57.27;100710.94;1029711;28;686;-66
2022/08/17 00:01:45;;;;;;;;;;;;;;;25.00;57.36;100710.94;1028219;28;650;-66
2022/08/17 00:02:35;;;;;;;;;;;;;;;24.99;57.22;100717.41;1028619;28;717;-66
2022/08/17 00:03:26;;;;;;;;;;;;;;;24.99;57.42;100714.69;1028497;28;667;-66
2022/08/17 00:04:18;;;;;;;;;;;;;;;25.00;57.26;100713.66;1032874;28;623;-66
2022/08/17 00:05:09;;;;;;;;;;;;;;;25.00;57.48;100718.25;1032853;28;650;-66
2022/08/17 00:05:59;;;;;;;;;;;;;;;24.96;57.56;100715.06;1028608;28;675;-66
2022/08/17 00:06:50;;;;;;;;;;;;;;;24.98;57.44;100718.44;1028692;28;713;-66
2022/08/17 00:07:41;;;;;;;;;;;;;;;24.99;57.37;100719.31;1029180;28;1919;-66
2022/08/17 00:08:31;;;;;;;;;;;;;;;24.99;57.38;100717.41;1028606;28;760;-66
2022/08/17 00:09:22;;;;;;;;;;;;;;;24.97;57.35;100715.91;1029094;28;678;-67
2022/08/17 00:10:12;;;;;;;;;;;;;;;24.96;57.33;100722.41;1029095;28;690;-66
2022/08/17 00:11:03;;;;;;;;;;;;;;;24.97;57.26;100718.66;1028648;28;671;-66
2022/08/17 00:11:53;;;;;;;;;;;;;;;24.96;57.65;100720.53;1028582;28;635;-66
2022/08/17 00:12:43;;;;;;;;;;;;;;;24.97;57.35;100718.66;1028674;28;658;-66
2022/08/17 00:13:34;;;;;;;;;;;;;;;24.95;57.52;100713.38;1028492;28;647;-66
2022/08/17 00:14:24;;;;;;;;;;;;;;;24.95;57.46;100713.38;1029133;28;684;-67
2022/08/17 00:15:15;;;;;;;;;;;;;;;24.94;57.59;100717.16;1028483;28;696;-67
2022/08/17 00:16:05;;;;;;;;;;;;;;;24.97;57.49;100715.91;1025752;28;1220;-67
2022/08/17 00:16:57;;;;;;;;;;;;;;;24.96;57.36;100712.34;1026135;28;698;-67
2022/08/17 00:17:48;;;;;;;;;;;;;;;24.95;57.51;100713.38;1025153;28;631;-67
2022/08/17 00:18:38;;;;;;;;;;;;;;;24.96;57.54;100723.25;1025218;28;662;-66
2022/08/17 00:19:29;;;;;;;;;;;;;;;24.96;57.43;100716.97;1025641;28;662;-67
2022/08/17 00:20:20;;;;;;;;;;;;;;;24.96;57.38;100714.22;1025707;28;718;-67
2022/08/17 00:21:10;;;;;;;;;;;;;;;24.95;57.50;100713.38;1025768;28;630;-67
2022/08/17 00:22:01;;;;;;;;;;;;;;;24.95;57.74;100715.28;1025672;28;662;-67
2022/08/17 00:22:52;;;;;;;;;;;;;;;24.94;57.56;100708.97;1025795;28;635;-67
2022/08/17 00:23:42;;;;;;;;;;;;;;;24.95;57.75;100709.81;1025068;28;658;-66
2022/08/17 00:24:33;;;;;;;;;;;;;;;24.94;57.45;100714.44;1025624;28;670;-67
2022/08/17 00:25:23;;;;;;;;;;;;;;;24.91;57.48;100706.59;1025116;28;654;-67
2022/08/17 00:26:14;;;;;;;;;;;;;;;24.91;57.65;100709.31;1025191;28;787;-67
2022/08/17 00:27:05;;;;;;;;;;;;;;;24.91;57.48;100720.22;1025757;28;741;-67
2022/08/17 00:27:55;;;;;;;;;;;;;;;24.92;57.27;100705.56;1025457;28;1895;-67
2022/08/17 00:28:46;;;;;;;;;;;;;;;24.89;57.36;100714.16;1025146;28;717;-66
2022/08/17 00:29:37;;;;;;;;;;;;;;;24.89;57.66;100711.44;1025567;28;646;-67
2022/08/17 00:30:27;;;;;;;;;;;;;;;24.88;57.57;100704.28;1025183;28;612;-66
2022/08/17 00:31:17;;;;;;;;;;;;;;;24.89;57.66;100703.25;1025654;28;717;-67
2022/08/17 00:32:09;;;;;;;;;;;;;;;24.89;57.41;100700.53;1025733;28;689;-67
2022/08/17 00:32:59;;;;;;;;;;;;;;;24.89;57.66;100697.81;1025733;28;650;-66
2022/08/17 00:33:50;;;;;;;;;;;;;;;24.89;57.41;100697.81;1025171;28;669;-67
2022/08/17 00:34:40;;;;;;;;;;;;;;;24.89;57.63;100692.34;1028765;28;698;-66
2022/08/17 00:35:30;;;;;;;;;;;;;;;24.88;57.80;100698.84;1028771;28;705;-67
2022/08/17 00:36:22;;;;;;;;;;;;;;;24.88;57.66;100696.13;1025187;28;698;-67
2022/08/17 00:37:13;;;;;;;;;;;;;;;24.88;57.62;100696.13;1025665;28;628;-66
2022/08/17 00:38:05;;;;;;;;;;;;;;;24.87;57.73;100699.88;1025619;28;646;-67
2022/08/17 00:38:56;;;;;;;;;;;;;;;24.88;57.64;100701.56;1025097;28;1007;-67
2022/08/17 00:39:46;;;;;;;;;;;;;;;24.87;57.60;100691.69;1025089;28;705;-67
2022/08/17 00:40:37;;;;;;;;;;;;;;;24.86;57.68;100700.91;1025545;28;721;-67
2022/08/17 00:41:27;;;;;;;;;;;;;;;24.84;57.92;100700.25;1025710;28;690;-67
2022/08/17 00:42:18;;;;;;;;;;;;;;;24.84;57.64;100694.81;1025665;28;634;-67
2022/08/17 00:43:08;;;;;;;;;;;;;;;24.86;57.63;100698.19;1025811;28;698;-67
2022/08/17 00:43:58;;;;;;;;;;;;;;;24.86;57.77;100698.19;1025710;28;639;-67
2022/08/17 00:44:49;;;;;;;;;;;;;;;24.86;57.74;100695.47;1038765;23;3720;-67
2022/08/17 00:45:39;;;;;;;;;;;;;;;24.85;57.81;100691.91;1033554;28;898;-68
2022/08/17 00:46:30;;;;;;;;;;;;;;;24.84;57.64;100697.53;1033333;28;689;-67
2022/08/17 00:47:20;;;;;;;;;;;;;;;24.85;57.69;100696.50;1033992;28;637;-68
2022/08/17 00:48:11;;;;;;;;;;;;;;;24.83;57.73;100691.25;1033673;28;1985;-67
2022/08/17 00:49:01;;;;;;;;;;;;;;;24.84;57.76;100700.25;1032499;28;670;-67
2022/08/17 00:49:51;;;;;;;;;;;;;;;24.83;57.77;100691.25;1032610;28;642;-67
2022/08/17 00:50:42;;;;;;;;;;;;;;;24.83;57.73;100693.97;1032402;28;638;-67
2022/08/17 00:51:32;;;;;;;;;;;;;;;24.81;57.86;100687.88;1032567;28;725;-67
2022/08/17 00:52:23;;;;;;;;;;;;;;;24.81;57.84;100685.13;1032462;28;710;-67
2022/08/17 00:53:13;;;;;;;;;;;;;;;24.82;57.70;100686.81;1032563;28;686;-67
2022/08/17 00:54:04;;;;;;;;;;;;;;;24.81;57.94;100689.75;1033254;28;729;-68
2022/08/17 00:54:54;;;;;;;;;;;;;;;24.81;57.80;100678.84;1033900;28;638;-68
2022/08/17 00:55:45;;;;;;;;;;;;;;;24.81;57.91;100684.28;1033648;28;673;-68
2022/08/17 00:56:35;;;;;;;;;;;;;;;24.83;57.88;100684.94;1033045;28;701;-68
2022/08/17 00:57:25;;;;;;;;;;;;;;;24.82;57.86;100688.72;1032583;28;759;-67
2022/08/17 00:58:16;;;;;;;;;;;;;;;24.81;57.75;100682.41;1032478;28;741;-68
2022/08/17 00:59:06;;;;;;;;;;;;;;;24.80;57.92;100679.88;1033357;28;748;-66
2022/08/17 00:59:57;;;;;;;;;;;;;;;24.81;57.77;100685.13;1034017;28;689;-68
2022/08/17 01:00:48;;;;;;;;;;;;;;;24.79;57.82;100683.66;1033692;28;709;-68
2022/08/17 01:01:38;;;;;;;;;;;;;;;24.80;57.87;100688.91;1033663;28;697;-67
2022/08/17 01:02:31;;;;;;;;;;;;;;;24.79;57.88;100680.91;1032672;28;673;-68
2022/08/17 01:03:24;;;;;;;;;;;;;;;24.77;57.71;100678.38;1034532;28;685;-68
2022/08/17 01:04:14;;;;;;;;;;;;;;;24.78;57.96;100679.22;1033595;28;662;-67
2022/08/17 01:05:04;;;;;;;;;;;;;;;24.79;57.93;100675.47;1033124;28;780;-67
2022/08/17 01:05:55;;;;;;;;;;;;;;;24.77;57.90;100683.84;1032443;28;784;-68
2022/08/17 01:06:47;;;;;;;;;;;;;;;24.78;58.01;100681.97;1032435;28;642;-67
2022/08/17 01:07:37;;;;;;;;;;;;;;;24.76;57.93;100675.84;1033666;28;654;-68
2022/08/17 01:08:28;;;;;;;;;;;;;;;24.76;58.01;100675.84;1033292;28;724;-68
2022/08/17 01:09:18;;;;;;;;;;;;;;;24.76;57.96;100673.13;1033914;28;781;-68
2022/08/17 01:10:10;;;;;;;;;;;;;;;24.76;57.79;100667.69;1033644;28;654;-67
2022/08/17 01:11:00;;;;;;;;;;;;;;;24.75;57.76;100668.72;1033669;28;658;-68
2022/08/17 01:11:51;;;;;;;;;;;;;;;24.77;57.95;100666.63;1033596;28;654;-68
2022/08/17 01:12:41;;;;;;;;;;;;;;;24.75;58.00;100668.72;1032555;28;686;-67
2022/08/17 01:13:32;;;;;;;;;;;;;;;24.76;57.93;100664.94;1032525;28;670;-67
2022/08/17 01:14:22;;;;;;;;;;;;;;;24.74;57.90;100662.41;1033324;28;794;-67
2022/08/17 01:15:13;;;;;;;;;;;;;;;24.74;57.92;100667.03;1033721;28;709;-68
2022/08/17 01:16:03;;;;;;;;;;;;;;;24.74;58.11;100669.75;1036248;28;1188;-68
2022/08/17 01:16:54;;;;;;;;;;;;;;;24.73;57.95;100666.19;1037171;28;657;-68
2022/08/17 01:17:44;;;;;;;;;;;;;;;24.74;57.95;100669.75;1037007;28;662;-67
2022/08/17 01:18:34;;;;;;;;;;;;;;;24.72;58.02;100664.50;1037101;28;776;-67
2022/08/17 01:19:25;;;;;;;;;;;;;;;24.71;58.04;100660.13;1035536;28;706;-68
2022/08/17 01:20:15;;;;;;;;;;;;;;;24.74;57.99;100672.47;1036647;28;629;-67
2022/08/17 01:21:06;;;;;;;;;;;;;;;24.72;57.91;100669.94;1036517;28;627;-67
2022/08/17 01:21:57;;;;;;;;;;;;;;;24.71;58.11;100665.56;1035495;28;666;-67
2022/08/17 01:22:47;;;;;;;;;;;;;;;24.72;57.98;100669.13;1036777;28;677;-67
2022/08/17 01:23:41;;;;;;;;;;;;;;;24.71;58.10;100668.28;1036703;28;709;-67
2022/08/17 01:24:31;;;;;;;;;;;;;;;24.71;58.17;100667.44;1036465;28;646;-67
2022/08/17 01:25:22;;;;;;;;;;;;;;;24.72;58.10;100674.59;1037036;28;712;-67
2022/08/17 01:26:12;;;;;;;;;;;;;;;24.71;58.10;100667.44;1036902;28;626;-67
2022/08/17 01:27:03;;;;;;;;;;;;;;;24.69;57.88;100664.91;1037145;28;713;-67
2022/08/17 01:27:53;;;;;;;;;;;;;;;24.68;58.13;100673.28;1035545;28;1957;-66
2022/08/17 01:28:44;;;;;;;;;;;;;;;24.68;58.19;100671.41;1036434;28;712;-66
2022/08/17 01:29:34;;;;;;;;;;;;;;;24.68;57.97;100670.56;1037026;28;639;-68
2022/08/17 01:30:24;;;;;;;;;;;;;;;24.69;57.84;100683.16;1037015;28;679;-68
2022/08/17 01:31:15;;;;;;;;;;;;;;;24.70;58.05;100682.09;1037083;28;654;-68
2022/08/17 01:32:05;;;;;;;;;;;;;;;24.68;58.05;100679.56;1035597;28;671;-67
2022/08/17 01:32:56;;;;;;;;;;;;;;;24.69;58.07;100669.53;1033240;28;654;-66
2022/08/17 01:33:46;;;;;;;;;;;;;;;24.69;58.08;100669.53;1032712;28;717;-67
2022/08/17 01:34:37;;;;;;;;;;;;;;;24.67;58.12;100680.63;1036843;28;678;-67
2022/08/17 01:35:27;;;;;;;;;;;;;;;24.67;58.28;100677.03;1037057;28;627;-66
2022/08/17 01:36:17;;;;;;;;;;;;;;;24.68;58.15;100667.84;1037086;28;709;-68
2022/08/17 01:37:08;;;;;;;;;;;;;;;24.68;58.22;100676.00;1035551;28;674;-68
2022/08/17 01:37:58;;;;;;;;;;;;;;;24.66;58.15;100675.34;1037008;28;713;-68
2022/08/17 01:38:49;;;;;;;;;;;;;;;24.65;58.20;100673.66;1037093;28;706;-66
2022/08/17 01:39:39;;;;;;;;;;;;;;;24.66;58.10;100673.47;1037028;28;693;-68
2022/08/17 01:40:30;;;;;;;;;;;;;;;24.66;58.18;100667.19;1036486;28;777;-68
2022/08/17 01:41:20;;;;;;;;;;;;;;;24.65;58.10;100673.66;1037571;28;635;-68
2022/08/17 01:42:11;;;;;;;;;;;;;;;24.66;58.05;100669.91;1037350;28;712;-68
2022/08/17 01:43:01;;;;;;;;;;;;;;;24.66;58.40;100664.44;1035908;28;658;-68
2022/08/17 01:43:51;;;;;;;;;;;;;;;24.66;57.97;100667.19;1037597;28;661;-68
2022/08/17 01:44:42;;;;;;;;;;;;;;;24.64;58.28;100672.81;1037746;28;1241;-68
2022/08/17 01:45:32;;;;;;;;;;;;;;;24.63;58.05;100659.38;1036165;28;710;-68
2022/08/17 01:46:23;;;;;;;;;;;;;;;24.64;57.95;100671.97;1036211;28;701;-68
2022/08/17 01:47:13;;;;;;;;;;;;;;;24.65;58.04;100663.63;1037474;28;826;-68
2022/08/17 01:48:04;;;;;;;;;;;;;;;24.64;58.05;100661.06;1037705;28;1899;-68
2022/08/17 01:48:55;;;;;;;;;;;;;;;24.63;58.25;100671.13;1036351;28;635;-67
2022/08/17 01:49:46;;;;;;;;;;;;;;;24.64;58.12;100658.34;1034040;28;642;-68
2022/08/17 01:50:36;;;;;;;;;;;;;;;24.63;58.26;100653.94;1034028;28;627;-68
2022/08/17 01:51:29;;;;;;;;;;;;;;;24.63;58.24;100651.22;1033429;28;674;-67
2022/08/17 01:52:20;;;;;;;;;;;;;;;24.62;58.28;100654.97;1037879;28;678;-68
2022/08/17 01:53:11;;;;;;;;;;;;;;;24.62;58.18;100652.25;1036259;28;738;-68
2022/08/17 01:54:03;;;;;;;;;;;;;;;24.60;58.34;100648.88;1037303;28;658;-68
2022/08/17 01:54:54;;;;;;;;;;;;;;;24.61;58.17;100653.28;1037359;28;682;-68
2022/08/17 01:55:44;;;;;;;;;;;;;;;24.60;58.29;100660.63;1037949;28;623;-68
2022/08/17 01:56:35;;;;;;;;;;;;;;;24.61;58.31;100656.00;1036247;28;671;-68
2022/08/17 01:57:25;;;;;;;;;;;;;;;24.62;58.07;100657.69;1037310;28;697;-67
2022/08/17 01:58:15;;;;;;;;;;;;;;;24.61;58.21;100656.00;1036413;28;749;-67
2022/08/17 01:59:06;;;;;;;;;;;;;;;24.59;57.95;100653.47;1037444;28;791;-68
2022/08/17 01:59:56;;;;;;;;;;;;;;;24.58;58.26;100663.53;1037252;28;642;-68
2022/08/17 02:00:47;;;;;;;;;;;;;;;24.60;58.37;100665.22;1038287;28;697;-68
2022/08/17 02:01:37;;;;;;;;;;;;;;;24.59;58.17;100675.28;1037665;28;650;-68
2022/08/17 02:02:28;;;;;;;;;;;;;;;24.60;58.19;100671.53;1037896;28;681;-68
2022/08/17 02:03:18;;;;;;;;;;;;;;;24.59;58.18;100669.84;1037809;28;642;-67
2022/08/17 02:04:09;;;;;;;;;;;;;;;24.60;58.11;100681.56;1037797;28;706;-67
2022/08/17 02:04:59;;;;;;;;;;;;;;;24.61;58.39;100688.72;1038366;28;942;-68
2022/08/17 02:05:50;;;;;;;;;;;;;;;24.59;58.19;100691.63;1037733;28;693;-67
2022/08/17 02:06:42;;;;;;;;;;;;;;;24.60;58.08;100687.88;1037803;28;646;-68
2022/08/17 02:07:35;;;;;;;;;;;;;;;24.60;57.98;100697.94;1037205;28;607;-66
2022/08/17 02:08:26;;;;;;;;;;;;;;;24.61;58.29;100702.34;1037196;28;658;-68
2022/08/17 02:09:16;;;;;;;;;;;;;;;24.57;58.15;100704.59;1037067;28;634;-67
2022/08/17 02:10:07;;;;;;;;;;;;;;;24.60;58.14;100712.41;1037597;28;717;-68
2022/08/17 02:10:58;;;;;;;;;;;;;;;24.58;58.38;100711.75;1036271;28;682;-68
2022/08/17 02:11:48;;;;;;;;;;;;;;;24.56;58.50;100711.09;1033910;28;634;-67
2022/08/17 02:12:38;;;;;;;;;;;;;;;24.56;58.35;100720.09;1033368;28;768;-66
2022/08/17 02:13:29;;;;;;;;;;;;;;;24.57;58.34;100718.22;1037557;28;717;-66
2022/08/17 02:14:19;;;;;;;;;;;;;;;24.56;58.09;100725.56;1037619;28;705;-66
2022/08/17 02:15:11;;;;;;;;;;;;;;;24.57;58.16;100731.84;1037696;28;657;-66
2022/08/17 02:16:01;;;;;;;;;;;;;;;24.56;58.45;100722.00;1033726;28;1256;-66
2022/08/17 02:16:52;;;;;;;;;;;;;;;24.55;58.17;100732.03;1033990;28;685;-67
2022/08/17 02:17:42;;;;;;;;;;;;;;;24.56;58.11;100736.47;1033817;28;701;-66
2022/08/17 02:18:32;;;;;;;;;;;;;;;24.55;58.33;100739.38;1033624;28;676;-66
2022/08/17 02:19:23;;;;;;;;;;;;;;;24.56;58.35;100744.63;1033561;28;744;-68
2022/08/17 02:20:13;;;;;;;;;;;;;;;24.55;58.28;100748.38;1033569;28;760;-67
2022/08/17 02:21:04;;;;;;;;;;;;;;;24.54;58.31;100746.69;1034125;28;744;-67
2022/08/17 02:21:55;;;;;;;;;;;;;;;24.53;58.31;100764.13;1034248;28;778;-67
2022/08/17 02:22:45;;;;;;;;;;;;;;;24.53;58.35;100772.28;1033539;28;717;-66
2022/08/17 02:23:36;;;;;;;;;;;;;;;24.54;58.40;100776.66;1033656;28;642;-67
2022/08/17 02:24:26;;;;;;;;;;;;;;;24.55;58.50;100778.34;1034082;28;729;-67
2022/08/17 02:25:17;;;;;;;;;;;;;;;24.55;58.30;100772.91;1033621;28;701;-67
2022/08/17 02:26:07;;;;;;;;;;;;;;;24.55;58.24;100775.63;1034196;28;716;-67
2022/08/17 02:26:57;;;;;;;;;;;;;;;24.54;58.40;100782.13;1033632;28;733;-66
2022/08/17 02:27:48;;;;;;;;;;;;;;;24.54;58.37;100779.41;1033590;28;1898;-66
2022/08/17 02:28:38;;;;;;;;;;;;;;;24.52;58.43;100780.66;1033581;28;650;-66
2022/08/17 02:29:29;;;;;;;;;;;;;;;24.53;58.50;100785.06;1033568;28;654;-66
2022/08/17 02:30:19;;;;;;;;;;;;;;;24.53;58.04;100776.91;1033528;28;630;-66
2022/08/17 02:31:10;;;;;;;;;;;;;;;24.53;58.43;100775.00;1033569;28;714;-66
2022/08/17 02:32:01;;;;;;;;;;;;;;;24.51;58.17;100771.63;1035261;28;670;-66
2022/08/17 02:32:51;;;;;;;;;;;;;;;24.52;58.41;100772.47;1034105;28;721;-66
2022/08/17 02:33:42;;;;;;;;;;;;;;;24.51;58.51;100777.09;1033622;28;665;-66
2022/08/17 02:34:32;;;;;;;;;;;;;;;24.50;58.33;100774.53;1033553;28;713;-67
2022/08/17 02:35:23;;;;;;;;;;;;;;;24.50;58.38;100775.41;1033596;28;697;-67
2022/08/17 02:36:13;;;;;;;;;;;;;;;24.52;58.36;100783.38;1033525;28;642;-66
2022/08/17 02:37:04;;;;;;;;;;;;;;;24.51;58.58;100777.09;1033599;28;682;-67
2022/08/17 02:37:55;;;;;;;;;;;;;;;24.50;58.58;100775.41;1034139;28;868;-66
2022/08/17 02:38:45;;;;;;;;;;;;;;;24.51;58.26;100771.63;1033534;28;623;-67
2022/08/17 02:39:37;;;;;;;;;;;;;;;24.52;58.31;100778.78;1033491;28;745;-66
2022/08/17 02:40:28;;;;;;;;;;;;;;;24.52;58.39;100767.88;1034115;28;639;-66
2022/08/17 02:41:18;;;;;;;;;;;;;;;24.52;58.43;100767.03;1033007;28;646;-66
2022/08/17 02:42:08;;;;;;;;;;;;;;;24.53;58.37;100760.53;1033526;28;622;-66
2022/08/17 02:42:59;;;;;;;;;;;;;;;24.51;58.31;100752.56;1033539;28;662;-67
2022/08/17 02:43:49;;;;;;;;;;;;;;;24.51;58.30;100749.84;1033560;28;729;-67
2022/08/17 02:44:40;;;;;;;;;;;;;;;24.50;58.43;100742.69;1033542;28;705;-67
2022/08/17 02:45:30;;;;;;;;;;;;;;;24.50;58.33;100747.31;1033474;28;690;-67
2022/08/17 02:46:21;;;;;;;;;;;;;;;24.50;58.31;100750.88;1033507;28;662;-66
2022/08/17 02:47:11;;;;;;;;;;;;;;;24.50;58.50;100742.69;1033984;28;650;-66
2022/08/17 02:48:02;;;;;;;;;;;;;;;24.50;58.49;100734.53;1033451;28;1910;-66
2022/08/17 02:48:52;;;;;;;;;;;;;;;24.50;58.44;100726.34;1033521;28;626;-66
2022/08/17 02:49:43;;;;;;;;;;;;;;;24.49;58.28;100729.25;1033481;28;705;-67
2022/08/17 02:50:33;;;;;;;;;;;;;;;24.49;58.42;100708.31;1033487;28;657;-67
2022/08/17 02:51:24;;;;;;;;;;;;;;;24.48;58.36;100705.78;1033477;28;737;-67
2022/08/17 02:52:14;;;;;;;;;;;;;;;24.49;58.52;100702.88;1033808;28;661;-67
2022/08/17 02:53:04;;;;;;;;;;;;;;;24.48;58.46;100703.91;1034125;28;681;-67
2022/08/17 02:53:55;;;;;;;;;;;;;;;24.48;58.54;100697.59;1033488;28;626;-67
2022/08/17 02:54:45;;;;;;;;;;;;;;;24.47;58.37;100701.38;1033539;28;658;-67
2022/08/17 02:55:36;;;;;;;;;;;;;;;24.48;58.36;100705.78;1033060;28;658;-67
2022/08/17 02:56:27;;;;;;;;;;;;;;;24.49;58.47;100704.75;1033497;28;654;-67
2022/08/17 02:57:17;;;;;;;;;;;;;;;24.47;58.36;100702.22;1034104;28;630;-66
2022/08/17 02:58:09;;;;;;;;;;;;;;;24.48;58.48;100701.19;1033995;28;673;-67
2022/08/17 02:58:59;;;;;;;;;;;;;;;24.46;58.27;100692.34;1034932;28;634;-67
2022/08/17 02:59:50;;;;;;;;;;;;;;;24.46;58.48;100686.91;1033695;28;646;-67
2022/08/17 03:00:40;;;;;;;;;;;;;;;24.46;58.47;100673.28;1034040;28;614;-67
2022/08/17 03:01:31;;;;;;;;;;;;;;;24.46;58.41;100673.28;1033450;28;740;-67
2022/08/17 03:02:21;;;;;;;;;;;;;;;24.45;58.40;100662.56;1033345;28;598;-66
2022/08/17 03:03:12;;;;;;;;;;;;;;;24.45;58.50;100663.41;1033538;28;682;-66
2022/08/17 03:04:02;;;;;;;;;;;;;;;24.45;58.60;100671.59;1034001;28;678;-66
2022/08/17 03:04:53;;;;;;;;;;;;;;;24.47;58.47;100657.78;1033456;28;705;-66
2022/08/17 03:05:44;;;;;;;;;;;;;;;24.46;58.22;100669.72;1033402;28;646;-67
2022/08/17 03:06:36;;;;;;;;;;;;;;;24.46;58.56;100676.00;1033992;28;666;-67
2022/08/17 03:07:26;;;;;;;;;;;;;;;24.45;58.53;100677.03;1033965;28;670;-67
2022/08/17 03:08:17;;;;;;;;;;;;;;;24.45;58.41;100682.50;1033272;28;1914;-67
2022/08/17 03:09:07;;;;;;;;;;;;;;;24.45;58.49;100679.75;1033807;28;693;-66
2022/08/17 03:09:58;;;;;;;;;;;;;;;24.44;58.79;100675.34;1033260;28;622;-67
2022/08/17 03:10:49;;;;;;;;;;;;;;;24.44;58.66;100672.63;1029117;28;643;-67
2022/08/17 03:11:39;;;;;;;;;;;;;;;24.45;58.44;100666.16;1029658;28;722;-66
2022/08/17 03:12:30;;;;;;;;;;;;;;;24.43;58.43;100665.50;1034426;28;626;-66
2022/08/17 03:13:21;;;;;;;;;;;;;;;24.45;58.36;100668.03;1033975;28;690;-67
2022/08/17 03:14:11;;;;;;;;;;;;;;;24.44;58.48;100667.19;1033418;28;846;-66
2022/08/17 03:15:02;;;;;;;;;;;;;;;24.41;58.47;100664.84;1033518;28;661;-67
2022/08/17 03:15:52;;;;;;;;;;;;;;;24.42;58.58;100669.25;1034650;28;1264;-67
2022/08/17 03:16:43;;;;;;;;;;;;;;;24.44;58.42;100671.78;1037407;28;697;-66
2022/08/17 03:17:33;;;;;;;;;;;;;;;24.42;58.65;100676.56;1035643;28;635;-67
2022/08/17 03:18:24;;;;;;;;;;;;;;;24.41;58.49;100678.47;1037431;28;673;-66
2022/08/17 03:19:15;;;;;;;;;;;;;;;24.41;58.58;100678.47;1036859;28;645;-66
2022/08/17 03:20:05;;;;;;;;;;;;;;;24.42;58.50;100691.03;1037444;28;631;-66
2022/08/17 03:20:55;;;;;;;;;;;;;;;24.41;58.74;100688.50;1037422;28;610;-67
2022/08/17 03:21:46;;;;;;;;;;;;;;;24.41;58.59;100700.25;1037389;28;638;-67
2022/08/17 03:22:36;;;;;;;;;;;;;;;24.42;58.70;100701.94;1037399;28;678;-66
2022/08/17 03:23:27;;;;;;;;;;;;;;;24.41;58.59;100715.75;1037457;28;647;-66
2022/08/17 03:24:17;;;;;;;;;;;;;;;24.42;58.42;100734.63;1036946;28;911;-66
2022/08/17 03:25:08;;;;;;;;;;;;;;;24.40;58.57;100742.16;1037464;28;745;-66
2022/08/17 03:25:59;;;;;;;;;;;;;;;24.40;58.62;100742.16;1037509;28;685;-66
2022/08/17 03:26:49;;;;;;;;;;;;;;;24.40;58.98;100750.31;1036829;28;713;-66
2022/08/17 03:27:39;;;;;;;;;;;;;;;24.40;58.75;100746.75;1037366;28;632;-67
2022/08/17 03:28:30;;;;;;;;;;;;;;;24.39;58.73;100748.63;1037402;28;737;-66
2022/08/17 03:29:20;;;;;;;;;;;;;;;24.39;58.60;100750.50;1037359;28;701;-66
2022/08/17 03:30:12;;;;;;;;;;;;;;;24.39;58.51;100761.41;1035846;28;659;-66
2022/08/17 03:31:02;;;;;;;;;;;;;;;24.39;58.58;100745.06;1037384;28;677;-67
2022/08/17 03:31:53;;;;;;;;;;;;;;;24.38;58.72;100744.22;1037409;28;729;-67
2022/08/17 03:32:43;;;;;;;;;;;;;;;24.37;58.66;100736.22;1035481;28;714;-67
2022/08/17 03:33:34;;;;;;;;;;;;;;;24.38;58.58;100738.75;1037332;28;797;-67
2022/08/17 03:34:24;;;;;;;;;;;;;;;24.39;58.70;100739.59;1036040;28;655;-67
2022/08/17 03:35:14;;;;;;;;;;;;;;;24.38;58.91;100744.22;1037043;28;634;-67
2022/08/17 03:36:05;;;;;;;;;;;;;;;24.37;58.81;100744.41;1037025;28;710;-67
2022/08/17 03:36:56;;;;;;;;;;;;;;;24.39;58.90;100753.22;1036930;28;678;-68
2022/08/17 03:37:46;;;;;;;;;;;;;;;24.37;58.55;100758.88;1037242;28;635;-68
2022/08/17 03:38:37;;;;;;;;;;;;;;;24.35;58.81;100755.53;1037351;28;638;-67
2022/08/17 03:39:27;;;;;;;;;;;;;;;24.35;58.66;100755.53;1035962;28;686;-68
2022/08/17 03:40:18;;;;;;;;;;;;;;;24.35;58.95;100751.94;1037021;28;686;-67
2022/08/17 03:41:08;;;;;;;;;;;;;;;24.36;58.96;100750.91;1037005;28;606;-68
2022/08/17 03:41:58;;;;;;;;;;;;;;;24.36;58.77;100748.19;1037323;28;701;-67
2022/08/17 03:42:52;;;;;;;;;;;;;;;24.36;58.89;100751.75;1037322;28;1014;-67
2022/08/17 03:43:42;;;;;;;;;;;;;;;24.37;58.87;100755.31;1036672;28;784;-67
2022/08/17 03:44:33;;;;;;;;;;;;;;;24.36;58.51;100750.91;1037328;28;626;-67
2022/08/17 03:57:08;;;;;;;;;;;;;;;24.33;58.75;100749.41;1029870;28;694;-67
2022/08/17 03:57:59;;;;;;;;;;;;;;;24.33;58.57;100746.69;1028942;28;647;-66
2022/08/17 03:58:49;;;;;;;;;;;;;;;24.33;58.66;100740.41;1028807;28;666;-67
2022/08/17 03:59:39;;;;;;;;;;;;;;;24.33;58.75;100741.25;1028714;28;642;-67
2022/08/17 04:00:30;;;;;;;;;;;;;;;24.32;59.02;100739.56;1028653;28;702;-67
2022/08/17 04:01:22;;;;;;;;;;;;;;;24.33;58.58;100735.78;1028693;28;639;-67
2022/08/17 04:02:12;;;;;;;;;;;;;;;24.31;59.30;100732.41;1028141;28;694;-67
2022/08/17 04:03:02;;;;;;;;;;;;;;;24.31;58.73;100735.13;1028729;28;678;-68
2022/08/17 04:03:53;;;;;;;;;;;;;;;24.32;58.98;100733.25;1028720;28;666;-68
2022/08/17 04:04:43;;;;;;;;;;;;;;;24.30;58.93;100730.72;1025320;28;958;-66
2022/08/17 04:05:34;;;;;;;;;;;;;;;24.29;58.88;100729.03;1024736;29;725;-67
2022/08/17 04:06:24;;;;;;;;;;;;;;;24.31;58.92;100726.13;1028000;28;710;-67
2022/08/17 04:07:15;;;;;;;;;;;;;;;24.30;59.05;100730.72;1028759;28;662;-67
2022/08/17 04:08:05;;;;;;;;;;;;;;;24.30;58.99;100724.44;1028280;28;1903;-65
2022/08/17 04:08:55;;;;;;;;;;;;;;;24.29;58.85;100728.19;1028741;28;681;-66
2022/08/17 04:09:46;;;;;;;;;;;;;;;24.29;59.12;100726.31;1028688;28;638;-66
2022/08/17 04:10:36;;;;;;;;;;;;;;;24.27;59.04;100720.22;1028641;28;1102;-66
2022/08/17 04:11:27;;;;;;;;;;;;;;;24.28;59.32;100721.06;1029169;28;643;-66
2022/08/17 04:12:17;;;;;;;;;;;;;;;24.28;59.16;100716.44;1028708;28;615;-66
2022/08/17 04:13:08;;;;;;;;;;;;;;;24.28;59.12;100721.91;1028140;28;655;-66
2022/08/17 04:13:58;;;;;;;;;;;;;;;24.29;59.09;100728.19;1028697;28;777;-66
2022/08/17 04:14:49;;;;;;;;;;;;;;;24.28;58.87;100719.19;1028607;28;634;-66
2022/08/17 04:15:39;;;;;;;;;;;;;;;24.29;58.88;100725.47;1028675;28;677;-66
2022/08/17 04:16:29;;;;;;;;;;;;;;;24.27;59.23;100728.38;1021881;28;631;-66
2022/08/17 04:17:20;;;;;;;;;;;;;;;24.26;59.17;100728.56;1017214;29;1030;-66
2022/08/17 04:18:10;;;;;;;;;;;;;;;24.25;59.25;100729.59;1016283;29;640;-67
2022/08/17 04:19:01;;;;;;;;;;;;;;;24.26;58.95;100729.41;1020654;29;683;-67
2022/08/17 04:19:51;;;;;;;;;;;;;;;24.25;59.21;100727.72;1020802;29;675;-67
2022/08/17 04:20:42;;;;;;;;;;;;;;;24.25;59.21;100725.00;1021284;29;729;-67
2022/08/17 04:21:33;;;;;;;;;;;;;;;24.22;59.28;100719.91;1021227;29;741;-67
2022/08/17 04:22:23;;;;;;;;;;;;;;;24.24;59.04;100720.59;1020339;29;622;-67
2022/08/17 04:23:13;;;;;;;;;;;;;;;24.24;59.03;100720.59;1021224;29;694;-67
2022/08/17 04:24:04;;;;;;;;;;;;;;;24.25;59.33;100722.28;1021253;29;627;-67
2022/08/17 04:24:54;;;;;;;;;;;;;;;24.25;59.21;100725.00;1021344;29;647;-67
2022/08/17 04:25:45;;;;;;;;;;;;;;;24.24;59.38;100726.03;1021232;29;741;-67
2022/08/17 04:26:35;;;;;;;;;;;;;;;24.23;59.09;100722.47;1020608;29;643;-67
2022/08/17 04:27:26;;;;;;;;;;;;;;;24.24;59.04;100728.75;1021146;29;722;-67
2022/08/17 04:28:16;;;;;;;;;;;;;;;24.23;59.47;100721.59;1021151;29;1898;-67
2022/08/17 04:29:06;;;;;;;;;;;;;;;24.23;59.32;100724.31;1021328;29;650;-67
2022/08/17 04:29:57;;;;;;;;;;;;;;;24.23;59.07;100727.03;1022698;28;948;-68
2022/08/17 04:30:47;;;;;;;;;;;;;;;24.22;59.03;100725.34;1028561;28;615;-67
2022/08/17 04:31:38;;;;;;;;;;;;;;;24.23;59.41;100733.34;1029294;28;729;-68
2022/08/17 04:32:28;;;;;;;;;;;;;;;24.23;59.11;100727.03;1030055;28;630;-67
2022/08/17 04:33:19;;;;;;;;;;;;;;;24.23;59.21;100730.63;1029759;28;695;-67
2022/08/17 04:34:10;;;;;;;;;;;;;;;24.22;59.27;100722.63;1029473;28;657;-67
2022/08/17 04:35:00;;;;;;;;;;;;;;;24.21;59.38;100726.38;1029938;28;653;-67
2022/08/17 04:35:51;;;;;;;;;;;;;;;24.23;59.35;100732.47;1028773;28;695;-67
2022/08/17 04:36:42;;;;;;;;;;;;;;;24.21;59.03;100727.22;1030310;28;598;-68
2022/08/17 04:37:33;;;;;;;;;;;;;;;24.21;59.09;100731.81;1029737;28;654;-67